sensor_id;sensor_type;location;lat;lon;timestamp;P1;durP1;ratioP1;P2;durP2;ratioP2
4122;SDS011;2075;51.062;6.920;2023-04-01T00:01:56;5.70;;;0.80;;
4122;SDS011;2075;51.062;6.920;2023-04-01T00:04:41;2.90;;;0.90;;
4122;SDS011;2075;51.062;6.920;2023-04-01T00:07:26;1.07;;;0.87;;
4122;SDS011;2075;51.062;6.920;2023-04-01T00:10:12;2.60;;;0.90;;
4122;SDS011;2075;51.062;6.920;2023-04-01T00:12:58;3.40;;;0.80;;
4122;SDS011;2075;51.062;6.920;2023-04-01T00:15:45;1.00;;;0.90;;
4122;SDS011;2075;51.062;6.920;2023-04-01T00:18:30;2.07;;;0.80;;
4122;SDS011;2075;51.062;6.920;2023-04-01T00:21:15;0.83;;;0.83;;
4122;SDS011;2075;51.062;6.920;2023-04-01T00:24:03;0.87;;;0.77;;
4122;SDS011;2075;51.062;6.920;2023-04-01T00:26:49;0.70;;;0.70;;
4122;SDS011;2075;51.062;6.920;2023-04-01T00:29:35;0.70;;;0.70;;
4122;SDS011;2075;51.062;6.920;2023-04-01T00:32:22;1.23;;;0.70;;
4122;SDS011;2075;51.062;6.920;2023-04-01T00:35:07;1.23;;;0.60;;
4122;SDS011;2075;51.062;6.920;2023-04-01T00:37:54;1.13;;;0.97;;
4122;SDS011;2075;51.062;6.920;2023-04-01T00:40:40;1.40;;;1.00;;
4122;SDS011;2075;51.062;6.920;2023-04-01T00:43:27;1.93;;;1.30;;
4122;SDS011;2075;51.062;6.920;2023-04-01T00:46:12;2.40;;;0.80;;
4122;SDS011;2075;51.062;6.920;2023-04-01T00:48:59;4.63;;;1.10;;
4122;SDS011;2075;51.062;6.920;2023-04-01T00:51:46;1.13;;;0.83;;
4122;SDS011;2075;51.062;6.920;2023-04-01T00:54:35;1.90;;;0.80;;
4122;SDS011;2075;51.062;6.920;2023-04-01T00:57:23;1.23;;;1.03;;
4122;SDS011;2075;51.062;6.920;2023-04-01T01:00:13;0.80;;;0.73;;
4122;SDS011;2075;51.062;6.920;2023-04-01T01:03:00;1.07;;;0.80;;
4122;SDS011;2075;51.062;6.920;2023-04-01T01:06:00;3.40;;;0.70;;
4122;SDS011;2075;51.062;6.920;2023-04-01T01:12:15;1.10;;;0.90;;
4122;SDS011;2075;51.062;6.920;2023-04-01T01:15:06;3.03;;;0.73;;
4122;SDS011;2075;51.062;6.920;2023-04-01T01:17:58;6.10;;;0.80;;
4122;SDS011;2075;51.062;6.920;2023-04-01T01:24:23;0.70;;;0.70;;
4122;SDS011;2075;51.062;6.920;2023-04-01T01:27:23;2.30;;;0.80;;
4122;SDS011;2075;51.062;6.920;2023-04-01T01:30:11;3.03;;;0.60;;
4122;SDS011;2075;51.062;6.920;2023-04-01T01:33:20;1.57;;;0.67;;
4122;SDS011;2075;51.062;6.920;2023-04-01T01:36:18;0.70;;;0.70;;
4122;SDS011;2075;51.062;6.920;2023-04-01T01:39:06;0.60;;;0.60;;
4122;SDS011;2075;51.062;6.920;2023-04-01T01:41:55;3.80;;;0.60;;
4122;SDS011;2075;51.062;6.920;2023-04-01T01:44:42;1.60;;;0.93;;
4122;SDS011;2075;51.062;6.920;2023-04-01T01:47:30;0.77;;;0.77;;
4122;SDS011;2075;51.062;6.920;2023-04-01T01:50:19;2.20;;;0.80;;
4122;SDS011;2075;51.062;6.920;2023-04-01T01:53:08;0.73;;;0.70;;
4122;SDS011;2075;51.062;6.920;2023-04-01T01:55:55;2.10;;;0.70;;
4122;SDS011;2075;51.062;6.920;2023-04-01T01:58:41;1.07;;;0.70;;
4122;SDS011;2075;51.062;6.920;2023-04-01T02:01:32;0.70;;;0.60;;
4122;SDS011;2075;51.062;6.920;2023-04-01T02:04:28;1.00;;;0.80;;
4122;SDS011;2075;51.062;6.920;2023-04-01T02:07:15;0.70;;;0.70;;
4122;SDS011;2075;51.062;6.920;2023-04-01T02:10:06;0.60;;;0.60;;
4122;SDS011;2075;51.062;6.920;2023-04-01T02:12:53;2.73;;;0.60;;
4122;SDS011;2075;51.062;6.920;2023-04-01T02:15:44;1.93;;;0.60;;
4122;SDS011;2075;51.062;6.920;2023-04-01T02:18:33;1.67;;;0.70;;
4122;SDS011;2075;51.062;6.920;2023-04-01T02:21:20;0.80;;;0.70;;
4122;SDS011;2075;51.062;6.920;2023-04-01T02:24:10;0.70;;;0.70;;
4122;SDS011;2075;51.062;6.920;2023-04-01T02:26:59;2.80;;;0.60;;
4122;SDS011;2075;51.062;6.920;2023-04-01T02:29:46;1.33;;;0.70;;
4122;SDS011;2075;51.062;6.920;2023-04-01T02:32:32;0.80;;;0.77;;
4122;SDS011;2075;51.062;6.920;2023-04-01T02:35:21;0.60;;;0.60;;
4122;SDS011;2075;51.062;6.920;2023-04-01T02:38:07;0.90;;;0.60;;
4122;SDS011;2075;51.062;6.920;2023-04-01T02:40:56;1.20;;;0.90;;
4122;SDS011;2075;51.062;6.920;2023-04-01T02:43:45;0.70;;;0.60;;
4122;SDS011;2075;51.062;6.920;2023-04-01T02:46:30;0.60;;;0.60;;
4122;SDS011;2075;51.062;6.920;2023-04-01T02:49:16;0.70;;;0.60;;
4122;SDS011;2075;51.062;6.920;2023-04-01T02:52:01;0.70;;;0.70;;
4122;SDS011;2075;51.062;6.920;2023-04-01T02:54:46;0.67;;;0.67;;
4122;SDS011;2075;51.062;6.920;2023-04-01T02:57:31;0.70;;;0.70;;
4122;SDS011;2075;51.062;6.920;2023-04-01T03:00:19;0.63;;;0.63;;
4122;SDS011;2075;51.062;6.920;2023-04-01T03:03:04;0.90;;;0.90;;
4122;SDS011;2075;51.062;6.920;2023-04-01T03:05:49;1.80;;;0.80;;
4122;SDS011;2075;51.062;6.920;2023-04-01T03:08:36;1.57;;;0.60;;
4122;SDS011;2075;51.062;6.920;2023-04-01T03:11:22;0.60;;;0.60;;
4122;SDS011;2075;51.062;6.920;2023-04-01T03:14:07;1.53;;;0.60;;
4122;SDS011;2075;51.062;6.920;2023-04-01T03:16:54;1.27;;;0.70;;
4122;SDS011;2075;51.062;6.920;2023-04-01T03:19:39;0.83;;;0.60;;
4122;SDS011;2075;51.062;6.920;2023-04-01T03:22:27;0.60;;;0.60;;
4122;SDS011;2075;51.062;6.920;2023-04-01T03:25:12;1.27;;;0.73;;
4122;SDS011;2075;51.062;6.920;2023-04-01T03:27:57;0.60;;;0.60;;
4122;SDS011;2075;51.062;6.920;2023-04-01T03:30:43;2.00;;;0.60;;
4122;SDS011;2075;51.062;6.920;2023-04-01T03:33:30;0.70;;;0.70;;
4122;SDS011;2075;51.062;6.920;2023-04-01T03:36:16;4.53;;;0.70;;
4122;SDS011;2075;51.062;6.920;2023-04-01T03:39:02;0.73;;;0.60;;
4122;SDS011;2075;51.062;6.920;2023-04-01T03:41:56;2.53;;;1.40;;
4122;SDS011;2075;51.062;6.920;2023-04-01T03:44:41;6.00;;;0.90;;
4122;SDS011;2075;51.062;6.920;2023-04-01T03:47:28;2.40;;;0.70;;
4122;SDS011;2075;51.062;6.920;2023-04-01T03:50:15;2.00;;;1.27;;
4122;SDS011;2075;51.062;6.920;2023-04-01T03:53:00;0.90;;;0.90;;
4122;SDS011;2075;51.062;6.920;2023-04-01T03:55:46;0.90;;;0.90;;
4122;SDS011;2075;51.062;6.920;2023-04-01T03:58:33;1.53;;;1.43;;
4122;SDS011;2075;51.062;6.920;2023-04-01T04:01:20;0.80;;;0.80;;
4122;SDS011;2075;51.062;6.920;2023-04-01T04:04:10;1.83;;;1.30;;
4122;SDS011;2075;51.062;6.920;2023-04-01T04:06:58;1.27;;;1.03;;
4122;SDS011;2075;51.062;6.920;2023-04-01T04:09:44;1.43;;;1.10;;
4122;SDS011;2075;51.062;6.920;2023-04-01T04:12:29;4.03;;;1.00;;
4122;SDS011;2075;51.062;6.920;2023-04-01T04:15:15;2.53;;;2.30;;
4122;SDS011;2075;51.062;6.920;2023-04-01T04:18:00;1.63;;;1.53;;
4122;SDS011;2075;51.062;6.920;2023-04-01T04:20:46;1.10;;;1.00;;
4122;SDS011;2075;51.062;6.920;2023-04-01T04:23:35;0.87;;;0.87;;
4122;SDS011;2075;51.062;6.920;2023-04-01T04:26:21;0.93;;;0.93;;
4122;SDS011;2075;51.062;6.920;2023-04-01T04:29:12;0.80;;;0.80;;
4122;SDS011;2075;51.062;6.920;2023-04-01T04:31:58;0.70;;;0.70;;
4122;SDS011;2075;51.062;6.920;2023-04-01T04:34:44;1.03;;;1.00;;
4122;SDS011;2075;51.062;6.920;2023-04-01T04:37:29;1.43;;;0.90;;
4122;SDS011;2075;51.062;6.920;2023-04-01T04:40:16;5.10;;;2.73;;
4122;SDS011;2075;51.062;6.920;2023-04-01T04:43:02;0.83;;;0.83;;
4122;SDS011;2075;51.062;6.920;2023-04-01T04:45:47;1.00;;;1.00;;
4122;SDS011;2075;51.062;6.920;2023-04-01T04:48:32;1.23;;;1.10;;
4122;SDS011;2075;51.062;6.920;2023-04-01T04:51:19;0.70;;;0.70;;
4122;SDS011;2075;51.062;6.920;2023-04-01T04:54:06;1.23;;;1.10;;
4122;SDS011;2075;51.062;6.920;2023-04-01T04:57:22;0.77;;;0.70;;
4122;SDS011;2075;51.062;6.920;2023-04-01T05:00:12;2.03;;;1.87;;
4122;SDS011;2075;51.062;6.920;2023-04-01T05:03:10;0.80;;;0.80;;
4122;SDS011;2075;51.062;6.920;2023-04-01T05:05:56;0.70;;;0.70;;
4122;SDS011;2075;51.062;6.920;2023-04-01T05:08:45;1.33;;;0.70;;
4122;SDS011;2075;51.062;6.920;2023-04-01T05:11:30;0.87;;;0.73;;
4122;SDS011;2075;51.062;6.920;2023-04-01T05:14:17;0.70;;;0.70;;
4122;SDS011;2075;51.062;6.920;2023-04-01T05:17:12;0.70;;;0.70;;
4122;SDS011;2075;51.062;6.920;2023-04-01T05:19:57;0.80;;;0.80;;
4122;SDS011;2075;51.062;6.920;2023-04-01T05:22:43;1.13;;;1.00;;
4122;SDS011;2075;51.062;6.920;2023-04-01T05:25:29;0.70;;;0.70;;
4122;SDS011;2075;51.062;6.920;2023-04-01T05:28:15;0.80;;;0.80;;
4122;SDS011;2075;51.062;6.920;2023-04-01T05:31:04;0.97;;;0.97;;
4122;SDS011;2075;51.062;6.920;2023-04-01T05:33:56;0.87;;;0.87;;
4122;SDS011;2075;51.062;6.920;2023-04-01T05:36:42;1.13;;;1.03;;
4122;SDS011;2075;51.062;6.920;2023-04-01T05:39:27;1.20;;;1.10;;
4122;SDS011;2075;51.062;6.920;2023-04-01T05:42:13;1.27;;;1.17;;
4122;SDS011;2075;51.062;6.920;2023-04-01T05:44:59;5.03;;;1.10;;
4122;SDS011;2075;51.062;6.920;2023-04-01T05:48:05;6.70;;;1.97;;
4122;SDS011;2075;51.062;6.920;2023-04-01T05:50:56;1.40;;;1.40;;
4122;SDS011;2075;51.062;6.920;2023-04-01T05:53:41;1.50;;;1.10;;
4122;SDS011;2075;51.062;6.920;2023-04-01T05:56:27;4.60;;;2.27;;
4122;SDS011;2075;51.062;6.920;2023-04-01T05:59:12;2.10;;;2.00;;
4122;SDS011;2075;51.062;6.920;2023-04-01T06:01:58;3.23;;;1.37;;
4122;SDS011;2075;51.062;6.920;2023-04-01T06:04:45;1.93;;;1.30;;
4122;SDS011;2075;51.062;6.920;2023-04-01T06:07:31;1.03;;;1.03;;
4122;SDS011;2075;51.062;6.920;2023-04-01T06:10:17;2.30;;;1.10;;
4122;SDS011;2075;51.062;6.920;2023-04-01T06:13:06;1.77;;;1.67;;
4122;SDS011;2075;51.062;6.920;2023-04-01T06:15:59;1.57;;;1.50;;
4122;SDS011;2075;51.062;6.920;2023-04-01T06:18:54;5.10;;;1.73;;
4122;SDS011;2075;51.062;6.920;2023-04-01T06:21:55;2.27;;;2.07;;
4122;SDS011;2075;51.062;6.920;2023-04-01T06:25:11;1.50;;;1.50;;
4122;SDS011;2075;51.062;6.920;2023-04-01T06:28:29;1.60;;;1.50;;
4122;SDS011;2075;51.062;6.920;2023-04-01T06:31:38;1.60;;;1.50;;
4122;SDS011;2075;51.062;6.920;2023-04-01T06:34:36;1.80;;;1.70;;
4122;SDS011;2075;51.062;6.920;2023-04-01T06:37:54;1.17;;;1.13;;
4122;SDS011;2075;51.062;6.920;2023-04-01T06:44:16;1.20;;;1.20;;
4122;SDS011;2075;51.062;6.920;2023-04-01T06:47:29;1.73;;;1.63;;
4122;SDS011;2075;51.062;6.920;2023-04-01T06:50:44;1.43;;;1.37;;
4122;SDS011;2075;51.062;6.920;2023-04-01T06:54:01;1.20;;;1.20;;
4122;SDS011;2075;51.062;6.920;2023-04-01T06:57:21;1.00;;;1.00;;
4122;SDS011;2075;51.062;6.920;2023-04-01T07:00:16;5.50;;;1.10;;
4122;SDS011;2075;51.062;6.920;2023-04-01T07:03:10;3.97;;;1.53;;
4122;SDS011;2075;51.062;6.920;2023-04-01T07:06:05;2.00;;;1.57;;
4122;SDS011;2075;51.062;6.920;2023-04-01T07:09:03;2.57;;;1.67;;
4122;SDS011;2075;51.062;6.920;2023-04-01T07:12:12;1.57;;;1.47;;
4122;SDS011;2075;51.062;6.920;2023-04-01T07:15:24;1.90;;;1.80;;
4122;SDS011;2075;51.062;6.920;2023-04-01T07:18:15;1.53;;;1.53;;
4122;SDS011;2075;51.062;6.920;2023-04-01T07:21:04;9.13;;;1.80;;
4122;SDS011;2075;51.062;6.920;2023-04-01T07:24:09;3.57;;;1.70;;
4122;SDS011;2075;51.062;6.920;2023-04-01T07:27:05;2.80;;;2.53;;
4122;SDS011;2075;51.062;6.920;2023-04-01T07:29:55;1.93;;;1.83;;
4122;SDS011;2075;51.062;6.920;2023-04-01T07:32:42;3.10;;;1.90;;
4122;SDS011;2075;51.062;6.920;2023-04-01T07:35:30;2.50;;;1.50;;
4122;SDS011;2075;51.062;6.920;2023-04-01T07:38:24;3.73;;;1.80;;
4122;SDS011;2075;51.062;6.920;2023-04-01T07:41:19;1.73;;;1.63;;
4122;SDS011;2075;51.062;6.920;2023-04-01T07:44:14;4.57;;;1.90;;
4122;SDS011;2075;51.062;6.920;2023-04-01T07:47:19;1.67;;;1.57;;
4122;SDS011;2075;51.062;6.920;2023-04-01T07:50:20;2.57;;;2.37;;
4122;SDS011;2075;51.062;6.920;2023-04-01T07:53:13;6.50;;;3.50;;
4122;SDS011;2075;51.062;6.920;2023-04-01T07:56:08;3.57;;;2.70;;
4122;SDS011;2075;51.062;6.920;2023-04-01T07:59:02;3.33;;;2.05;;
4122;SDS011;2075;51.062;6.920;2023-04-01T08:02:29;3.13;;;2.50;;
4122;SDS011;2075;51.062;6.920;2023-04-01T08:05:25;4.30;;;2.13;;
4122;SDS011;2075;51.062;6.920;2023-04-01T08:08:16;1.90;;;1.63;;
4122;SDS011;2075;51.062;6.920;2023-04-01T08:11:31;1.53;;;1.53;;
4122;SDS011;2075;51.062;6.920;2023-04-01T08:14:48;1.90;;;1.80;;
4122;SDS011;2075;51.062;6.920;2023-04-01T08:18:03;2.87;;;2.57;;
4122;SDS011;2075;51.062;6.920;2023-04-01T08:20:54;2.90;;;2.30;;
4122;SDS011;2075;51.062;6.920;2023-04-01T08:23:44;1.33;;;1.33;;
4122;SDS011;2075;51.062;6.920;2023-04-01T08:26:34;3.67;;;2.30;;
4122;SDS011;2075;51.062;6.920;2023-04-01T08:29:25;1.60;;;1.37;;
4122;SDS011;2075;51.062;6.920;2023-04-01T08:32:18;1.30;;;1.20;;
4122;SDS011;2075;51.062;6.920;2023-04-01T08:35:14;1.60;;;1.20;;
4122;SDS011;2075;51.062;6.920;2023-04-01T08:38:09;2.17;;;1.93;;
4122;SDS011;2075;51.062;6.920;2023-04-01T08:40:59;1.17;;;1.17;;
4122;SDS011;2075;51.062;6.920;2023-04-01T08:44:28;1.67;;;1.53;;
4122;SDS011;2075;51.062;6.920;2023-04-01T08:47:32;1.70;;;1.60;;
4122;SDS011;2075;51.062;6.920;2023-04-01T08:50:36;3.03;;;2.80;;
4122;SDS011;2075;51.062;6.920;2023-04-01T08:53:57;1.50;;;1.47;;
4122;SDS011;2075;51.062;6.920;2023-04-01T08:57:00;4.20;;;1.30;;
4122;SDS011;2075;51.062;6.920;2023-04-01T08:59:55;1.30;;;1.30;;
4122;SDS011;2075;51.062;6.920;2023-04-01T09:06:35;1.40;;;1.30;;
4122;SDS011;2075;51.062;6.920;2023-04-01T09:09:47;2.17;;;1.73;;
4122;SDS011;2075;51.062;6.920;2023-04-01T09:16:18;1.37;;;1.30;;
4122;SDS011;2075;51.062;6.920;2023-04-01T09:19:21;1.80;;;1.50;;
4122;SDS011;2075;51.062;6.920;2023-04-01T09:22:22;3.25;;;1.77;;
4122;SDS011;2075;51.062;6.920;2023-04-01T09:25:30;2.00;;;1.90;;
4122;SDS011;2075;51.062;6.920;2023-04-01T09:28:27;1.93;;;1.80;;
4122;SDS011;2075;51.062;6.920;2023-04-01T09:31:26;1.77;;;1.67;;
4122;SDS011;2075;51.062;6.920;2023-04-01T09:34:53;1.90;;;1.80;;
4122;SDS011;2075;51.062;6.920;2023-04-01T09:37:47;1.43;;;1.43;;
4122;SDS011;2075;51.062;6.920;2023-04-01T09:40:43;2.10;;;1.93;;
4122;SDS011;2075;51.062;6.920;2023-04-01T09:43:47;1.77;;;1.70;;
4122;SDS011;2075;51.062;6.920;2023-04-01T09:46:47;2.40;;;2.20;;
4122;SDS011;2075;51.062;6.920;2023-04-01T09:49:50;2.40;;;2.20;;
4122;SDS011;2075;51.062;6.920;2023-04-01T09:52:53;2.70;;;2.50;;
4122;SDS011;2075;51.062;6.920;2023-04-01T09:55:59;9.13;;;3.10;;
4122;SDS011;2075;51.062;6.920;2023-04-01T10:03:22;3.03;;;2.83;;
4122;SDS011;2075;51.062;6.920;2023-04-01T10:06:45;2.53;;;2.43;;
4122;SDS011;2075;51.062;6.920;2023-04-01T10:13:24;2.93;;;2.70;;
4122;SDS011;2075;51.062;6.920;2023-04-01T10:23:31;2.37;;;2.27;;
4122;SDS011;2075;51.062;6.920;2023-04-01T10:26:41;2.90;;;2.70;;
4122;SDS011;2075;51.062;6.920;2023-04-01T10:37:23;2.10;;;1.90;;
4122;SDS011;2075;51.062;6.920;2023-04-01T10:40:36;2.17;;;1.87;;
4122;SDS011;2075;51.062;6.920;2023-04-01T10:44:11;5.63;;;1.90;;
4122;SDS011;2075;51.062;6.920;2023-04-01T10:55:04;2.27;;;2.10;;
4122;SDS011;2075;51.062;6.920;2023-04-01T10:58:29;3.10;;;2.90;;
4122;SDS011;2075;51.062;6.920;2023-04-01T11:05:50;3.60;;;3.30;;
4122;SDS011;2075;51.062;6.920;2023-04-01T11:15:58;4.43;;;3.53;;
4122;SDS011;2075;51.062;6.920;2023-04-01T11:19:05;3.70;;;3.40;;
4122;SDS011;2075;51.062;6.920;2023-04-01T11:22:19;3.27;;;3.07;;
4122;SDS011;2075;51.062;6.920;2023-04-01T11:25:29;3.13;;;2.90;;
4122;SDS011;2075;51.062;6.920;2023-04-01T11:28:54;3.67;;;3.30;;
4122;SDS011;2075;51.062;6.920;2023-04-01T11:32:01;3.90;;;3.60;;
4122;SDS011;2075;51.062;6.920;2023-04-01T11:34:56;8.60;;;5.83;;
4122;SDS011;2075;51.062;6.920;2023-04-01T11:37:49;4.00;;;3.70;;
4122;SDS011;2075;51.062;6.920;2023-04-01T11:41:02;4.10;;;3.70;;
4122;SDS011;2075;51.062;6.920;2023-04-01T11:44:23;3.63;;;3.20;;
4122;SDS011;2075;51.062;6.920;2023-04-01T11:47:51;3.17;;;2.97;;
4122;SDS011;2075;51.062;6.920;2023-04-01T11:50:50;3.20;;;3.00;;
4122;SDS011;2075;51.062;6.920;2023-04-01T11:53:47;2.83;;;2.73;;
4122;SDS011;2075;51.062;6.920;2023-04-01T11:56:58;3.10;;;3.00;;
4122;SDS011;2075;51.062;6.920;2023-04-01T11:59:54;3.00;;;2.80;;
4122;SDS011;2075;51.062;6.920;2023-04-01T12:03:05;3.13;;;2.90;;
4122;SDS011;2075;51.062;6.920;2023-04-01T12:06:11;3.83;;;2.80;;
4122;SDS011;2075;51.062;6.920;2023-04-01T12:09:04;2.73;;;2.60;;
4122;SDS011;2075;51.062;6.920;2023-04-01T12:12:01;3.00;;;2.80;;
4122;SDS011;2075;51.062;6.920;2023-04-01T12:15:02;3.13;;;2.93;;
4122;SDS011;2075;51.062;6.920;2023-04-01T12:18:00;3.60;;;2.73;;
4122;SDS011;2075;51.062;6.920;2023-04-01T12:20:57;2.80;;;2.70;;
4122;SDS011;2075;51.062;6.920;2023-04-01T12:23:52;2.93;;;2.73;;
4122;SDS011;2075;51.062;6.920;2023-04-01T12:26:59;3.00;;;2.80;;
4122;SDS011;2075;51.062;6.920;2023-04-01T12:30:01;2.83;;;2.73;;
4122;SDS011;2075;51.062;6.920;2023-04-01T12:33:14;3.13;;;2.87;;
4122;SDS011;2075;51.062;6.920;2023-04-01T12:36:12;2.60;;;2.50;;
4122;SDS011;2075;51.062;6.920;2023-04-01T12:39:11;2.43;;;2.33;;
4122;SDS011;2075;51.062;6.920;2023-04-01T12:42:10;3.13;;;2.93;;
4122;SDS011;2075;51.062;6.920;2023-04-01T12:45:04;2.90;;;2.70;;
4122;SDS011;2075;51.062;6.920;2023-04-01T12:48:19;3.17;;;2.97;;
4122;SDS011;2075;51.062;6.920;2023-04-01T12:51:20;4.13;;;2.83;;
4122;SDS011;2075;51.062;6.920;2023-04-01T12:54:18;3.60;;;3.20;;
4122;SDS011;2075;51.062;6.920;2023-04-01T12:57:28;3.10;;;2.90;;
4122;SDS011;2075;51.062;6.920;2023-04-01T13:00:38;2.70;;;2.60;;
4122;SDS011;2075;51.062;6.920;2023-04-01T13:03:40;3.20;;;3.00;;
4122;SDS011;2075;51.062;6.920;2023-04-01T13:06:40;3.10;;;2.93;;
4122;SDS011;2075;51.062;6.920;2023-04-01T13:09:40;3.30;;;3.10;;
4122;SDS011;2075;51.062;6.920;2023-04-01T13:16:03;3.60;;;3.30;;
4122;SDS011;2075;51.062;6.920;2023-04-01T13:18:58;2.60;;;2.50;;
4122;SDS011;2075;51.062;6.920;2023-04-01T13:21:53;2.80;;;2.70;;
4122;SDS011;2075;51.062;6.920;2023-04-01T13:24:44;3.70;;;3.40;;
4122;SDS011;2075;51.062;6.920;2023-04-01T13:27:37;3.60;;;3.40;;
4122;SDS011;2075;51.062;6.920;2023-04-01T13:30:27;2.93;;;2.80;;
4122;SDS011;2075;51.062;6.920;2023-04-01T13:33:20;3.40;;;3.10;;
4122;SDS011;2075;51.062;6.920;2023-04-01T13:36:20;2.90;;;2.80;;
4122;SDS011;2075;51.062;6.920;2023-04-01T13:39:15;4.20;;;3.80;;
4122;SDS011;2075;51.062;6.920;2023-04-01T13:42:14;3.40;;;3.20;;
4122;SDS011;2075;51.062;6.920;2023-04-01T13:45:08;4.10;;;3.80;;
4122;SDS011;2075;51.062;6.920;2023-04-01T13:48:04;3.80;;;3.57;;
4122;SDS011;2075;51.062;6.920;2023-04-01T13:54:54;3.30;;;3.10;;
4122;SDS011;2075;51.062;6.920;2023-04-01T13:58:05;3.23;;;3.00;;
4122;SDS011;2075;51.062;6.920;2023-04-01T14:01:09;3.40;;;3.20;;
4122;SDS011;2075;51.062;6.920;2023-04-01T14:04:03;3.93;;;3.63;;
4122;SDS011;2075;51.062;6.920;2023-04-01T14:07:08;4.17;;;3.57;;
4122;SDS011;2075;51.062;6.920;2023-04-01T14:10:06;4.40;;;3.90;;
4122;SDS011;2075;51.062;6.920;2023-04-01T14:13:05;7.63;;;3.43;;
4122;SDS011;2075;51.062;6.920;2023-04-01T14:15:57;3.10;;;2.90;;
4122;SDS011;2075;51.062;6.920;2023-04-01T14:19:02;2.77;;;2.57;;
4122;SDS011;2075;51.062;6.920;2023-04-01T14:21:56;2.60;;;2.50;;
4122;SDS011;2075;51.062;6.920;2023-04-01T14:25:03;3.30;;;3.00;;
4122;SDS011;2075;51.062;6.920;2023-04-01T14:28:13;2.80;;;2.70;;
4122;SDS011;2075;51.062;6.920;2023-04-01T14:31:15;3.37;;;3.10;;
4122;SDS011;2075;51.062;6.920;2023-04-01T14:34:16;2.97;;;2.77;;
4122;SDS011;2075;51.062;6.920;2023-04-01T14:37:11;3.40;;;3.20;;
4122;SDS011;2075;51.062;6.920;2023-04-01T14:40:15;5.07;;;4.67;;
4122;SDS011;2075;51.062;6.920;2023-04-01T14:46:25;3.30;;;3.10;;
4122;SDS011;2075;51.062;6.920;2023-04-01T14:49:22;3.20;;;3.00;;
4122;SDS011;2075;51.062;6.920;2023-04-01T14:52:16;3.27;;;3.07;;
4122;SDS011;2075;51.062;6.920;2023-04-01T14:55:20;3.67;;;3.40;;
4122;SDS011;2075;51.062;6.920;2023-04-01T14:58:13;2.80;;;2.60;;
4122;SDS011;2075;51.062;6.920;2023-04-01T15:01:06;3.90;;;3.60;;
4122;SDS011;2075;51.062;6.920;2023-04-01T15:04:06;4.20;;;3.27;;
4122;SDS011;2075;51.062;6.920;2023-04-01T15:10:56;4.10;;;3.67;;
4122;SDS011;2075;51.062;6.920;2023-04-01T15:14:01;5.87;;;4.37;;
4122;SDS011;2075;51.062;6.920;2023-04-01T15:17:14;5.07;;;3.70;;
4122;SDS011;2075;51.062;6.920;2023-04-01T15:20:16;5.33;;;3.90;;
4122;SDS011;2075;51.062;6.920;2023-04-01T15:23:16;4.40;;;4.00;;
4122;SDS011;2075;51.062;6.920;2023-04-01T15:29:44;3.73;;;3.53;;
4122;SDS011;2075;51.062;6.920;2023-04-01T15:32:44;3.57;;;3.30;;
4122;SDS011;2075;51.062;6.920;2023-04-01T15:35:40;3.50;;;3.20;;
4122;SDS011;2075;51.062;6.920;2023-04-01T15:38:33;9.53;;;3.57;;
4122;SDS011;2075;51.062;6.920;2023-04-01T15:41:24;4.30;;;3.90;;
4122;SDS011;2075;51.062;6.920;2023-04-01T15:44:41;3.93;;;3.63;;
4122;SDS011;2075;51.062;6.920;2023-04-01T15:47:37;4.67;;;3.70;;
4122;SDS011;2075;51.062;6.920;2023-04-01T15:50:38;4.90;;;4.50;;
4122;SDS011;2075;51.062;6.920;2023-04-01T15:53:40;5.27;;;4.77;;
4122;SDS011;2075;51.062;6.920;2023-04-01T15:56:42;4.30;;;3.90;;
4122;SDS011;2075;51.062;6.920;2023-04-01T16:03:17;4.70;;;4.30;;
4122;SDS011;2075;51.062;6.920;2023-04-01T16:06:31;4.03;;;3.73;;
4122;SDS011;2075;51.062;6.920;2023-04-01T16:09:43;3.60;;;3.40;;
4122;SDS011;2075;51.062;6.920;2023-04-01T16:12:46;4.30;;;3.90;;
4122;SDS011;2075;51.062;6.920;2023-04-01T16:15:47;4.60;;;3.70;;
4122;SDS011;2075;51.062;6.920;2023-04-01T16:18:45;5.77;;;3.93;;
4122;SDS011;2075;51.062;6.920;2023-04-01T16:21:43;4.13;;;3.47;;
4122;SDS011;2075;51.062;6.920;2023-04-01T16:24:33;3.90;;;3.57;;
4122;SDS011;2075;51.062;6.920;2023-04-01T16:27:25;5.60;;;3.50;;
4122;SDS011;2075;51.062;6.920;2023-04-01T16:30:26;4.90;;;3.77;;
4122;SDS011;2075;51.062;6.920;2023-04-01T16:33:22;3.10;;;2.90;;
4122;SDS011;2075;51.062;6.920;2023-04-01T16:36:24;3.23;;;2.73;;
4122;SDS011;2075;51.062;6.920;2023-04-01T16:39:20;3.00;;;2.80;;
4122;SDS011;2075;51.062;6.920;2023-04-01T16:42:16;3.57;;;3.20;;
4122;SDS011;2075;51.062;6.920;2023-04-01T16:45:16;2.63;;;2.43;;
4122;SDS011;2075;51.062;6.920;2023-04-01T16:48:10;3.37;;;3.07;;
4122;SDS011;2075;51.062;6.920;2023-04-01T16:50:59;3.40;;;3.20;;
4122;SDS011;2075;51.062;6.920;2023-04-01T16:53:49;3.93;;;3.60;;
4122;SDS011;2075;51.062;6.920;2023-04-01T16:56:47;4.30;;;3.10;;
4122;SDS011;2075;51.062;6.920;2023-04-01T16:59:36;3.83;;;3.50;;
4122;SDS011;2075;51.062;6.920;2023-04-01T17:02:23;3.77;;;3.50;;
4122;SDS011;2075;51.062;6.920;2023-04-01T17:05:12;5.33;;;3.40;;
4122;SDS011;2075;51.062;6.920;2023-04-01T17:08:01;3.50;;;3.20;;
4122;SDS011;2075;51.062;6.920;2023-04-01T17:10:53;3.53;;;3.30;;
4122;SDS011;2075;51.062;6.920;2023-04-01T17:13:46;4.60;;;3.57;;
4122;SDS011;2075;51.062;6.920;2023-04-01T17:19:56;3.60;;;3.30;;
4122;SDS011;2075;51.062;6.920;2023-04-01T17:22:54;3.30;;;3.10;;
4122;SDS011;2075;51.062;6.920;2023-04-01T17:25:48;3.13;;;2.93;;
4122;SDS011;2075;51.062;6.920;2023-04-01T17:28:45;4.57;;;3.00;;
4122;SDS011;2075;51.062;6.920;2023-04-01T17:31:44;3.13;;;2.93;;
4122;SDS011;2075;51.062;6.920;2023-04-01T17:34:35;2.93;;;2.73;;
4122;SDS011;2075;51.062;6.920;2023-04-01T17:37:34;2.73;;;2.53;;
4122;SDS011;2075;51.062;6.920;2023-04-01T17:40:33;3.20;;;2.97;;
4122;SDS011;2075;51.062;6.920;2023-04-01T17:43:30;3.50;;;3.20;;
4122;SDS011;2075;51.062;6.920;2023-04-01T17:46:28;2.80;;;2.60;;
4122;SDS011;2075;51.062;6.920;2023-04-01T17:49:26;3.60;;;3.30;;
4122;SDS011;2075;51.062;6.920;2023-04-01T17:52:21;2.80;;;2.60;;
4122;SDS011;2075;51.062;6.920;2023-04-01T17:58:32;2.23;;;2.13;;
4122;SDS011;2075;51.062;6.920;2023-04-01T18:01:34;2.60;;;2.50;;
4122;SDS011;2075;51.062;6.920;2023-04-01T18:04:31;2.60;;;2.40;;
4122;SDS011;2075;51.062;6.920;2023-04-01T18:07:38;3.47;;;2.37;;
4122;SDS011;2075;51.062;6.920;2023-04-01T18:10:49;2.90;;;2.70;;
4122;SDS011;2075;51.062;6.920;2023-04-01T18:13:47;3.37;;;3.17;;
4122;SDS011;2075;51.062;6.920;2023-04-01T18:16:47;3.60;;;3.30;;
4122;SDS011;2075;51.062;6.920;2023-04-01T18:19:41;3.90;;;3.60;;
4122;SDS011;2075;51.062;6.920;2023-04-01T18:22:38;3.50;;;3.20;;
4122;SDS011;2075;51.062;6.920;2023-04-01T18:25:32;3.87;;;3.40;;
4122;SDS011;2075;51.062;6.920;2023-04-01T18:28:22;2.93;;;2.73;;
4122;SDS011;2075;51.062;6.920;2023-04-01T18:31:19;3.37;;;2.87;;
4122;SDS011;2075;51.062;6.920;2023-04-01T18:34:12;3.30;;;3.10;;
4122;SDS011;2075;51.062;6.920;2023-04-01T18:37:28;3.47;;;3.17;;
4122;SDS011;2075;51.062;6.920;2023-04-01T18:43:14;4.50;;;3.53;;
4122;SDS011;2075;51.062;6.920;2023-04-01T18:46:16;3.83;;;3.53;;
4122;SDS011;2075;51.062;6.920;2023-04-01T18:49:13;4.40;;;4.10;;
4122;SDS011;2075;51.062;6.920;2023-04-01T18:52:08;4.30;;;4.00;;
4122;SDS011;2075;51.062;6.920;2023-04-01T18:58:17;5.33;;;4.80;;
4122;SDS011;2075;51.062;6.920;2023-04-01T19:01:14;5.50;;;5.00;;
4122;SDS011;2075;51.062;6.920;2023-04-01T19:04:09;7.30;;;5.57;;
4122;SDS011;2075;51.062;6.920;2023-04-01T19:07:01;6.87;;;5.00;;
4122;SDS011;2075;51.062;6.920;2023-04-01T19:10:12;5.00;;;4.50;;
4122;SDS011;2075;51.062;6.920;2023-04-01T19:13:02;5.93;;;4.97;;
4122;SDS011;2075;51.062;6.920;2023-04-01T19:16:00;5.10;;;4.70;;
4122;SDS011;2075;51.062;6.920;2023-04-01T19:22:30;5.40;;;4.90;;
4122;SDS011;2075;51.062;6.920;2023-04-01T19:25:26;6.70;;;5.03;;
4122;SDS011;2075;51.062;6.920;2023-04-01T19:28:25;4.93;;;4.53;;
4122;SDS011;2075;51.062;6.920;2023-04-01T19:31:24;7.60;;;5.43;;
4122;SDS011;2075;51.062;6.920;2023-04-01T19:34:25;5.40;;;4.90;;
4122;SDS011;2075;51.062;6.920;2023-04-01T19:37:22;6.40;;;5.63;;
4122;SDS011;2075;51.062;6.920;2023-04-01T19:40:20;7.33;;;6.17;;
4122;SDS011;2075;51.062;6.920;2023-04-01T19:43:24;5.73;;;5.10;;
4122;SDS011;2075;51.062;6.920;2023-04-01T19:46:26;5.77;;;5.17;;
4122;SDS011;2075;51.062;6.920;2023-04-01T19:49:23;7.20;;;5.53;;
4122;SDS011;2075;51.062;6.920;2023-04-01T19:52:23;6.23;;;5.33;;